Time;durP1;ratioP1;P1;durP2;ratioP2;P2;SDS_P1;SDS_P2;PMS_P1;PMS_P2;Temp;Humidity;BMP_temperature;BMP_pressure;BME280_temperature;BME280_humidity;BME280_pressure;Samples;Min_cycle;Max_cycle;Signal;HPM_P1;HPM_P2
2024/02/14 00:00:01;;;;;;;18.45;12.60;;;;;;;10.51;62.26;99342.91;5072277;28;20513;-49
2024/02/14 00:02:26;;;;;;;21.95;13.23;;;;;;;10.51;61.90;99339.50;5073574;28;20024;-49
2024/02/14 00:04:55;;;;;;;21.63;16.55;;;;;;;10.36;61.96;99336.88;5073588;28;20043;-49
2024/02/14 00:07:22;;;;;;;21.80;14.07;;;;;;;10.15;62.05;99335.78;5072474;28;20414;-49
2024/02/14 00:09:48;;;;;;;17.63;10.85;;;;;;;10.05;63.14;99326.56;5073698;28;20533;-48
2024/02/14 00:12:16;;;;;;;18.52;11.98;;;;;;;10.22;63.27;99340.28;5073405;28;20029;-49
2024/02/14 00:14:42;;;;;;;18.63;11.90;;;;;;;10.19;62.92;99344.91;5072001;28;20060;-49
2024/02/14 00:17:12;;;;;;;18.15;12.48;;;;;;;10.28;63.64;99347.44;5071981;28;20037;-49
2024/02/14 00:19:38;;;;;;;20.60;12.50;;;;;;;10.31;63.00;99350.53;5071651;28;20114;-49
2024/02/14 00:22:06;;;;;;;14.60;10.00;;;;;;;10.22;62.90;99343.72;5073232;28;20510;-49
2024/02/14 00:24:33;;;;;;;15.25;9.45;;;;;;;10.04;63.05;99341.50;5071848;28;20021;-49
2024/02/14 00:27:00;;;;;;;16.38;10.65;;;;;;;9.91;63.49;99357.03;5072988;28;20016;-48
2024/02/14 00:29:26;;;;;;;16.95;12.32;;;;;;;9.82;64.30;99363.31;5072029;28;20024;-49
2024/02/14 00:31:52;;;;;;;21.35;12.70;;;;;;;9.89;64.52;99356.38;5071681;28;20028;-49
2024/02/14 00:34:18;;;;;;;15.40;10.63;;;;;;;10.01;64.03;99354.94;5073000;28;20020;-49
2024/02/14 00:36:43;;;;;;;19.95;9.95;;;;;;;9.99;64.39;99362.19;5070989;28;20520;-49
2024/02/14 00:39:10;;;;;;;19.08;12.75;;;;;;;10.06;64.35;99360.47;5071434;28;20093;-48
2024/02/14 00:41:36;;;;;;;16.42;10.27;;;;;;;10.08;64.11;99352.41;5071750;28;20032;-49
2024/02/14 00:44:03;;;;;;;18.58;10.77;;;;;;;9.95;64.01;99358.28;5071504;28;20021;-49
2024/02/14 00:46:29;;;;;;;13.50;9.20;;;;;;;9.94;64.14;99367.13;5071321;28;20028;-48
2024/02/14 00:48:56;;;;;;;15.48;11.60;;;;;;;10.06;64.19;99370.97;5071666;28;20033;-49
2024/02/14 00:51:22;;;;;;;15.10;10.77;;;;;;;10.12;64.04;99364.16;5071350;28;20095;-49
2024/02/14 00:53:47;;;;;;;18.13;12.02;;;;;;;10.09;64.00;99356.69;5071575;28;20135;-49
2024/02/14 00:56:13;;;;;;;17.13;10.60;;;;;;;10.00;63.80;99348.91;5071203;28;20410;-49
2024/02/14 00:58:39;;;;;;;16.73;10.55;;;;;;;9.90;64.52;99342.25;5072343;28;20512;-49
2024/02/14 01:01:05;;;;;;;16.40;9.80;;;;;;;9.78;65.38;99334.84;5072787;28;20024;-49
2024/02/14 01:03:31;;;;;;;14.80;10.57;;;;;;;9.90;65.40;99331.78;5071081;28;20016;-49
2024/02/14 01:05:57;;;;;;;321.90;292.13;;;;;;;9.98;64.83;99332.53;5072378;28;20524;-48
2024/02/14 01:08:23;;;;;;;120.30;108.13;;;;;;;9.99;64.81;99335.97;5072353;28;20024;-49
2024/02/14 01:10:51;;;;;;;34.72;29.63;;;;;;;9.99;64.40;99349.88;5071238;28;20031;-48
2024/02/14 01:13:18;;;;;;;24.38;20.58;;;;;;;9.89;64.78;99351.94;5072148;28;20036;-48
2024/02/14 01:15:44;;;;;;;18.27;14.25;;;;;;;9.84;64.98;99349.06;5054491;28;20364;-49
2024/02/14 01:18:10;;;;;;;17.70;14.25;;;;;;;9.80;65.23;99364.34;5071858;28;20040;-48
2024/02/14 01:20:37;;;;;;;16.15;11.48;;;;;;;9.86;65.16;99367.22;5072063;28;20074;-49
2024/02/14 01:23:03;;;;;;;17.55;14.25;;;;;;;10.12;65.39;99370.25;5072268;28;20111;-49
2024/02/14 01:25:29;;;;;;;16.33;11.43;;;;;;;10.33;64.57;99369.53;5070706;28;20119;-49
2024/02/14 01:27:54;;;;;;;16.25;11.13;;;;;;;10.33;64.56;99361.66;5070650;28;20103;-49
2024/02/14 01:30:20;;;;;;;16.48;11.98;;;;;;;10.46;64.13;99370.69;5070941;28;20486;-49
2024/02/14 01:32:46;;;;;;;15.90;9.75;;;;;;;10.49;63.59;99379.03;5071215;28;20028;-49
2024/02/14 01:35:13;;;;;;;16.63;10.63;;;;;;;10.43;63.45;99376.34;5071813;28;20025;-49
2024/02/14 01:37:39;;;;;;;13.77;9.45;;;;;;;10.28;63.25;99365.78;5070508;28;20417;-49
2024/02/14 01:40:07;;;;;;;25.38;22.88;;;;;;;10.18;63.69;99368.69;5072061;28;20020;-49
2024/02/14 01:42:33;;;;;;;17.23;10.88;;;;;;;10.20;63.81;99367.53;5070784;28;20058;-49
2024/02/14 01:44:59;;;;;;;11.27;8.23;;;;;;;10.24;63.67;99360.13;5070732;28;20067;-49
2024/02/14 01:47:25;;;;;;;13.18;9.48;;;;;;;10.29;62.95;99352.50;5071766;28;20020;-48
2024/02/14 01:49:51;;;;;;;16.08;9.00;;;;;;;10.21;63.45;99360.47;5071092;28;20032;-49
2024/02/14 01:52:16;;;;;;;13.23;9.18;;;;;;;10.19;63.66;99351.97;5070666;28;20032;-49
2024/02/14 01:54:45;;;;;;;14.90;9.45;;;;;;;10.15;63.67;99359.38;5070467;28;20029;-49
2024/02/14 01:57:12;;;;;;;18.23;9.40;;;;;;;10.13;64.05;99350.06;5053675;28;20025;-49
2024/02/14 01:59:38;;;;;;;24.63;19.88;;;;;;;10.04;64.09;99349.34;5071515;28;20024;-49
2024/02/14 02:02:07;;;;;;;21.98;19.45;;;;;;;10.13;64.38;99350.88;5071564;28;20031;-49
2024/02/14 02:04:34;;;;;;;46.13;39.53;;;;;;;10.25;64.44;99351.25;5071567;28;20153;-49
2024/02/14 02:07:00;;;;;;;33.67;30.35;;;;;;;10.37;64.39;99341.13;5070334;28;20020;-49
2024/02/14 02:09:26;;;;;;;13.10;10.40;;;;;;;10.56;64.03;99343.19;5070244;28;20066;-49
2024/02/14 02:11:56;;;;;;;13.32;9.07;;;;;;;10.78;63.56;99344.06;5053542;28;20107;-49
2024/02/14 02:14:22;;;;;;;22.17;15.88;;;;;;;10.94;63.08;99348.25;5070184;28;20109;-49
2024/02/14 02:16:49;;;;;;;22.00;17.10;;;;;;;11.07;61.78;99349.41;5070127;28;20020;-49
2024/02/14 02:19:17;;;;;;;17.45;8.65;;;;;;;11.10;62.04;99349.81;5069853;28;20418;-49
2024/02/14 02:21:46;;;;;;;13.80;8.13;;;;;;;11.10;61.60;99344.56;5071503;28;20070;-49
2024/02/14 02:24:12;;;;;;;14.45;8.85;;;;;;;11.11;62.12;99340.94;5070210;28;20028;-49
2024/02/14 02:26:38;;;;;;;15.40;9.32;;;;;;;11.20;61.90;99331.94;5070038;28;20516;-49
2024/02/14 02:29:05;;;;;;;11.25;7.20;;;;;;;10.87;60.33;99330.81;5070182;28;20111;-49
2024/02/14 02:31:30;;;;;;;13.38;6.78;;;;;;;10.54;60.81;99320.75;5071361;28;20016;-49
2024/02/14 02:33:56;;;;;;;9.20;6.18;;;;;;;10.40;61.75;99314.50;5071344;28;20013;-49
2024/02/14 02:36:24;;;;;;;10.25;7.82;;;;;;;10.20;62.05;99306.38;5070060;28;20103;-49
2024/02/14 02:38:50;;;;;;;11.10;6.93;;;;;;;10.09;62.04;99309.47;5069935;28;20020;-49
2024/02/14 02:41:16;;;;;;;10.93;6.22;;;;;;;10.01;62.62;99299.88;5071275;28;20024;-49
2024/02/14 02:43:42;;;;;;;8.55;6.10;;;;;;;9.83;62.51;99304.66;5070197;28;20040;-49
2024/02/14 02:46:11;;;;;;;10.80;6.70;;;;;;;9.54;63.39;99301.03;5070140;28;20040;-49
2024/02/14 02:48:36;;;;;;;13.35;6.10;;;;;;;9.47;64.19;99302.72;5071195;28;20074;-49
2024/02/14 02:51:02;;;;;;;7.50;6.00;;;;;;;9.40;64.25;99308.69;5069842;28;20017;-49
2024/02/14 02:53:28;;;;;;;11.05;6.10;;;;;;;9.30;64.70;99299.44;5071105;28;20027;-48
2024/02/14 02:55:54;;;;;;;13.00;7.07;;;;;;;9.31;64.99;99296.63;5070131;28;20042;-48
2024/02/14 02:58:21;;;;;;;8.25;6.20;;;;;;;9.30;64.82;99312.53;5069664;28;20016;-49
2024/02/14 03:00:49;;;;;;;14.10;6.47;;;;;;;9.26;65.38;99300.78;5071662;28;20510;-49
2024/02/14 03:03:16;;;;;;;10.05;6.20;;;;;;;9.42;66.08;99299.81;5074724;28;20025;-48
2024/02/14 03:05:44;;;;;;;10.80;6.38;;;;;;;9.59;65.08;99296.84;5073645;28;20052;-49
2024/02/14 03:08:15;;;;;;;8.63;6.60;;;;;;;9.49;64.83;99285.81;5073293;28;20073;-49
2024/02/14 03:10:41;;;;;;;10.68;6.28;;;;;;;9.33;65.36;99291.22;5074592;28;20025;-49
2024/02/14 03:13:11;;;;;;;13.95;6.78;;;;;;;9.25;67.12;99291.28;5073181;28;20035;-49
2024/02/14 03:15:38;;;;;;;9.13;6.68;;;;;;;9.35;67.25;99290.03;5073507;28;20414;-49
2024/02/14 03:18:09;;;;;;;14.95;7.40;;;;;;;9.30;66.38;99302.88;5073089;28;20130;-49
2024/02/14 03:20:36;;;;;;;11.85;6.90;;;;;;;9.33;66.59;99304.31;5073451;28;20498;-49
2024/02/14 03:23:03;;;;;;;13.48;7.05;;;;;;;9.50;66.47;99318.09;5074588;28;20490;-49
2024/02/14 03:25:29;;;;;;;10.32;5.80;;;;;;;9.68;66.56;99317.75;5073322;28;20032;-49
2024/02/14 03:27:56;;;;;;;10.25;7.10;;;;;;;9.92;66.08;99320.13;5072983;28;20024;-49
2024/02/14 03:30:22;;;;;;;12.60;7.72;;;;;;;10.26;66.28;99324.03;5074174;28;20482;-48
2024/02/14 03:32:49;;;;;;;20.02;8.02;;;;;;;10.57;65.25;99333.50;5074126;28;20069;-49
2024/02/14 03:35:15;;;;;;;13.93;9.13;;;;;;;10.67;64.19;99325.34;5074140;28;20059;-49
2024/02/14 03:37:42;;;;;;;13.13;8.70;;;;;;;10.56;63.88;99321.38;5072807;28;20399;-49
2024/02/14 03:40:09;;;;;;;14.07;8.85;;;;;;;10.49;64.17;99331.78;5073860;28;20029;-49
2024/02/14 03:42:35;;;;;;;13.88;9.88;;;;;;;10.46;64.30;99326.09;5074018;28;20481;-49
2024/02/14 03:45:05;;;;;;;12.60;9.23;;;;;;;10.36;64.36;99335.09;5072977;28;20024;-49
2024/02/14 03:47:35;;;;;;;15.82;9.23;;;;;;;10.29;64.52;99344.63;5072627;28;20555;-49
2024/02/14 03:50:04;;;;;;;11.63;7.80;;;;;;;10.07;64.31;99340.31;5089416;28;20082;-49
2024/02/14 03:52:32;;;;;;;16.58;8.68;;;;;;;9.99;66.13;99339.38;5072511;28;20024;-49
2024/02/14 03:54:59;;;;;;;14.90;7.57;;;;;;;10.18;66.53;99342.47;5073840;28;20036;-48
2024/02/14 03:57:28;;;;;;;10.82;8.13;;;;;;;10.39;66.04;99347.00;5073703;28;20024;-49
2024/02/14 04:00:01;;;;;;;16.30;7.95;;;;;;;10.62;65.61;99346.06;5072314;28;20024;-49
2024/02/14 04:02:28;;;;;;;10.48;6.88;;;;;;;10.77;64.44;99347.66;5073699;28;20078;-49
2024/02/14 04:04:54;;;;;;;11.88;6.88;;;;;;;10.92;63.83;99352.88;5073690;28;20031;-48
2024/02/14 04:07:19;;;;;;;13.43;6.75;;;;;;;11.09;63.45;99357.91;5072256;28;20017;-49
2024/02/14 04:09:45;;;;;;;9.20;6.57;;;;;;;11.18;62.53;99362.81;5073601;28;20031;-49
2024/02/14 04:12:11;;;;;;;10.45;6.43;;;;;;;10.99;61.85;99364.25;5071208;28;20556;-49
2024/02/14 04:14:37;;;;;;;10.25;7.88;;;;;;;10.81;61.68;99370.94;5072126;28;20024;-49
2024/02/14 04:17:05;;;;;;;13.75;7.53;;;;;;;10.46;61.82;99366.25;5072094;28;20032;-48
2024/02/14 04:19:30;;;;;;;14.65;8.45;;;;;;;10.04;62.47;99362.47;5073011;28;20036;-49
2024/02/14 04:21:56;;;;;;;10.80;7.55;;;;;;;9.75;63.82;99366.66;5073251;28;20398;-49
2024/02/14 04:24:22;;;;;;;16.27;9.70;;;;;;;9.72;65.38;99363.59;5071936;28;20024;-49
2024/02/14 04:26:49;;;;;;;14.45;8.57;;;;;;;9.65;66.00;99368.72;5071885;28;20028;-49
2024/02/14 04:29:15;;;;;;;18.42;8.82;;;;;;;9.45;65.77;99375.44;5073068;28;20029;-49
2024/02/14 04:31:42;;;;;;;14.07;8.68;;;;;;;9.10;66.63;99381.09;5071732;28;20401;-49
2024/02/14 04:34:10;;;;;;;12.45;8.63;;;;;;;8.92;68.18;99370.06;5073025;28;20110;-49
2024/02/14 04:36:35;;;;;;;17.55;12.38;;;;;;;8.91;69.25;99376.28;5071685;28;20035;-49
2024/02/14 04:39:01;;;;;;;21.80;19.50;;;;;;;8.96;69.73;99369.56;5072877;28;20024;-49
2024/02/14 04:41:27;;;;;;;14.40;10.43;;;;;;;9.33;69.95;99372.41;5072914;28;20082;-49
2024/02/14 04:43:53;;;;;;;13.68;9.52;;;;;;;9.56;67.72;99369.78;5071558;28;20567;-49
2024/02/14 04:46:19;;;;;;;15.43;7.38;;;;;;;9.66;66.96;99359.88;5072750;28;20082;-49
2024/02/14 04:48:44;;;;;;;15.63;10.63;;;;;;;9.68;67.15;99376.25;5072710;28;20028;-48
2024/02/14 04:51:10;;;;;;;13.35;8.10;;;;;;;9.67;66.28;99386.91;5072662;28;20027;-48
2024/02/14 04:53:35;;;;;;;15.10;11.77;;;;;;;9.43;66.76;99386.09;5071310;28;20043;-49
2024/02/14 04:56:01;;;;;;;12.02;8.73;;;;;;;9.35;67.12;99394.81;5071333;28;20074;-49
2024/02/14 04:58:27;;;;;;;14.38;9.45;;;;;;;9.31;67.22;99397.97;5071119;28;20025;-49
2024/02/14 05:00:54;;;;;;;13.23;7.53;;;;;;;9.24;66.83;99395.25;5072521;28;20020;-49
2024/02/14 05:03:21;;;;;;;13.05;7.18;;;;;;;9.24;67.36;99402.28;5072425;28;20056;-49
2024/02/14 05:05:46;;;;;;;13.18;6.32;;;;;;;9.37;66.22;99397.28;5071214;28;20021;-49
2024/02/14 05:08:12;;;;;;;9.18;5.85;;;;;;;9.14;66.11;99403.31;5072365;28;20062;-49
2024/02/14 05:10:38;;;;;;;11.60;5.95;;;;;;;9.05;66.29;99398.31;5072313;28;20056;-49
2024/02/14 05:13:04;;;;;;;10.15;6.50;;;;;;;8.96;66.36;99402.78;5070948;28;20021;-48
2024/02/14 05:15:30;;;;;;;15.27;6.15;;;;;;;9.03;67.48;99408.94;5072132;28;20030;-49
2024/02/14 05:17:56;;;;;;;10.82;6.60;;;;;;;9.17;66.92;99407.38;5070682;28;20063;-49
2024/02/14 05:20:22;;;;;;;12.00;6.00;;;;;;;9.03;66.38;99408.13;5072152;28;20033;-49
2024/02/14 05:22:48;;;;;;;13.45;10.00;;;;;;;9.10;67.34;99414.31;5071907;28;20028;-49
2024/02/14 05:25:13;;;;;;;12.63;9.02;;;;;;;9.13;66.45;99406.91;5070786;28;20398;-49
2024/02/14 05:27:39;;;;;;;16.92;8.20;;;;;;;9.02;66.53;99409.13;5072020;28;20052;-49
2024/02/14 05:30:05;;;;;;;29.65;22.10;;;;;;;8.87;66.52;99416.88;5071935;28;20028;-49
2024/02/14 05:32:32;;;;;;;32.80;29.27;;;;;;;8.87;67.00;99420.31;5070683;28;20028;-49
2024/02/14 05:34:59;;;;;;;16.30;11.63;;;;;;;8.90;66.85;99422.59;5071946;28;20109;-48
2024/02/14 05:37:27;;;;;;;16.98;10.65;;;;;;;8.88;66.84;99437.66;5071849;28;20023;-48
2024/02/14 05:39:53;;;;;;;13.88;10.23;;;;;;;8.94;67.48;99428.31;5071798;28;20085;-48
2024/02/14 05:42:20;;;;;;;14.15;8.60;;;;;;;8.96;66.88;99427.16;5071842;28;20031;-49
2024/02/14 05:44:45;;;;;;;14.82;6.68;;;;;;;8.92;66.83;99427.66;5071797;28;20025;-48
2024/02/14 05:47:11;;;;;;;12.55;7.35;;;;;;;8.77;67.33;99417.91;5071837;28;20023;-48
2024/02/14 05:49:41;;;;;;;16.60;11.25;;;;;;;8.79;67.85;99415.94;5070609;28;20028;-48
2024/02/14 05:52:07;;;;;;;9.27;6.80;;;;;;;8.85;67.33;99406.56;5071806;28;20025;-49
2024/02/14 05:54:34;;;;;;;8.75;5.35;;;;;;;8.77;66.15;99402.22;5071722;28;20024;-49
2024/02/14 05:57:01;;;;;;;10.98;6.78;;;;;;;8.64;66.90;99406.38;5070451;28;20025;-49
2024/02/14 05:59:27;;;;;;;9.40;5.00;;;;;;;8.81;66.86;99407.91;5070552;28;20115;-49
2024/02/14 06:01:56;;;;;;;9.20;4.80;;;;;;;8.82;65.14;99404.31;5071696;28;20100;-49
2024/02/14 06:04:22;;;;;;;7.68;4.07;;;;;;;8.60;65.83;99417.16;5071680;28;20107;-49
2024/02/14 06:06:48;;;;;;;11.50;5.10;;;;;;;8.46;66.31;99425.72;5070298;28;20112;-49
2024/02/14 06:09:14;;;;;;;8.02;4.72;;;;;;;8.29;66.58;99424.91;5071645;28;20029;-48
2024/02/14 06:11:40;;;;;;;7.43;4.38;;;;;;;8.09;66.86;99437.53;5070263;28;20025;-48
2024/02/14 06:14:06;;;;;;;9.23;5.28;;;;;;;8.03;67.82;99438.19;5070276;28;20031;-48
2024/02/14 06:16:33;;;;;;;9.57;5.18;;;;;;;8.29;67.12;99418.84;5071515;28;20405;-48
2024/02/14 06:19:00;;;;;;;8.40;5.15;;;;;;;8.45;66.62;99415.41;5071230;28;20095;-49
2024/02/14 06:21:29;;;;;;;8.43;5.25;;;;;;;8.53;65.96;99413.59;5070175;28;20032;-48
2024/02/14 06:23:54;;;;;;;10.02;4.85;;;;;;;8.49;65.47;99414.91;5071491;28;20016;-49
2024/02/14 06:26:20;;;;;;;10.43;4.93;;;;;;;8.45;65.79;99404.94;5071447;28;20020;-48
2024/02/14 06:28:46;;;;;;;11.43;5.15;;;;;;;8.43;66.06;99392.06;5070454;28;20056;-49
2024/02/14 06:31:14;;;;;;;9.82;4.85;;;;;;;8.57;65.82;99403.59;5070062;28;20027;-49
2024/02/14 06:33:40;;;;;;;13.75;5.22;;;;;;;8.62;65.31;99393.44;5071342;28;20025;-49
2024/02/14 06:36:05;;;;;;;8.27;4.72;;;;;;;8.52;65.21;99393.63;5074027;28;20020;-49
2024/02/14 06:38:31;;;;;;;8.15;5.07;;;;;;;8.37;65.60;99403.97;5073784;28;20395;-49
2024/02/14 06:40:57;;;;;;;7.65;5.22;;;;;;;8.24;65.83;99413.31;5073882;28;20016;-49
2024/02/14 06:43:23;;;;;;;6.90;4.95;;;;;;;8.14;66.19;99416.13;5074146;28;20028;-49
2024/02/14 06:45:49;;;;;;;9.75;5.35;;;;;;;8.12;66.53;99405.00;5057146;28;20125;-49
2024/02/14 06:48:15;;;;;;;10.85;5.60;;;;;;;8.05;66.79;99402.25;5073737;28;20017;-49
2024/02/14 06:50:41;;;;;;;13.25;5.53;;;;;;;8.04;66.59;99402.41;5075021;28;20084;-49
2024/02/14 06:53:06;;;;;;;9.55;5.80;;;;;;;7.96;66.35;99411.06;5074966;28;20017;-48
2024/02/14 06:55:32;;;;;;;9.52;5.57;;;;;;;7.99;67.08;99413.38;5073531;28;20025;-48
2024/02/14 06:57:59;;;;;;;14.95;5.97;;;;;;;8.47;67.17;99403.81;5074915;28;20047;-49
2024/02/14 07:00:25;;;;;;;13.88;6.15;;;;;;;9.14;65.30;99399.91;5057243;28;20056;-49
2024/02/14 07:02:50;;;;;;;12.65;5.88;;;;;;;9.63;63.90;99402.16;5074826;28;20533;-49
2024/02/14 07:05:16;;;;;;;17.73;6.20;;;;;;;9.97;62.63;99414.00;5075039;28;20160;-49
2024/02/14 07:07:42;;;;;;;20.05;6.82;;;;;;;10.11;62.40;99413.19;5074727;28;20487;-49
2024/02/14 07:10:08;;;;;;;10.10;5.88;;;;;;;10.12;62.32;99416.63;5074651;28;20028;-49
2024/02/14 07:12:36;;;;;;;23.58;6.63;;;;;;;10.02;63.15;99410.81;5074590;28;20070;-49
2024/02/14 07:15:04;;;;;;;11.00;5.07;;;;;;;10.08;63.49;99405.69;5074543;28;20048;-49
2024/02/14 07:17:30;;;;;;;10.07;4.82;;;;;;;10.04;61.87;99416.69;5074735;28;20063;-48
2024/02/14 07:19:56;;;;;;;12.27;4.60;;;;;;;9.84;61.50;99413.75;5074211;28;20044;-48
2024/02/14 07:22:25;;;;;;;6.57;5.20;;;;;;;9.91;62.93;99415.50;5073104;28;20474;-46
2024/02/14 07:24:50;;;;;;;9.90;5.55;;;;;;;10.66;60.95;99412.94;5074445;28;20017;-47
2024/02/14 07:27:16;;;;;;;8.43;5.35;;;;;;;11.11;57.75;99411.88;5074310;28;20024;-47
2024/02/14 07:29:42;;;;;;;10.35;5.05;;;;;;;11.78;56.51;99415.13;5074547;28;20032;-47
2024/02/14 07:32:08;;;;;;;9.27;5.00;;;;;;;12.51;54.57;99412.19;5074269;28;20495;-47
2024/02/14 07:34:33;;;;;;;10.68;4.93;;;;;;;13.20;51.83;99408.63;5073243;28;20394;-47
2024/02/14 07:36:59;;;;;;;11.18;6.07;;;;;;;13.67;51.33;99401.59;5074201;28;20025;-47
2024/02/14 07:39:25;;;;;;;13.02;5.15;;;;;;;14.27;49.02;99398.91;5074101;28;20032;-47
2024/02/14 07:41:51;;;;;;;7.75;4.55;;;;;;;14.60;48.30;99399.84;5074108;28;20021;-47
2024/02/14 07:44:18;;;;;;;9.30;4.68;;;;;;;15.02;46.66;99408.22;5072779;28;20693;-47
2024/02/14 07:46:43;;;;;;;10.52;4.95;;;;;;;15.20;44.09;99416.25;5073916;28;20410;-47
2024/02/14 07:49:10;;;;;;;9.88;5.07;;;;;;;15.23;44.50;99421.13;5073996;28;20078;-49
2024/02/14 07:51:39;;;;;;;13.45;4.45;;;;;;;15.08;44.51;99415.31;5072840;28;20024;-49
2024/02/14 07:54:05;;;;;;;12.18;5.30;;;;;;;14.06;44.91;99425.53;5072563;28;20028;-49
2024/02/14 07:56:31;;;;;;;13.13;6.10;;;;;;;13.22;47.54;99419.78;5073807;28;20032;-47
2024/02/14 07:58:57;;;;;;;12.45;7.50;;;;;;;13.17;47.87;99412.44;5072711;28;20078;-47
2024/02/14 08:01:23;;;;;;;12.35;4.47;;;;;;;13.52;48.01;99416.78;5073733;28;20030;-47
2024/02/14 08:03:49;;;;;;;11.95;5.15;;;;;;;13.49;47.67;99409.31;5073665;28;20107;-47
2024/02/14 08:06:15;;;;;;;10.15;6.03;;;;;;;13.45;47.41;99413.34;5073874;28;20031;-47
2024/02/14 08:08:41;;;;;;;19.15;6.50;;;;;;;13.74;47.52;99414.78;5072272;28;20043;-47
2024/02/14 08:11:07;;;;;;;15.20;5.65;;;;;;;13.49;46.77;99411.94;5073574;28;20031;-47
2024/02/14 08:13:34;;;;;;;15.38;5.63;;;;;;;13.39;48.21;99409.69;5055644;28;20029;-47
2024/02/14 08:16:00;;;;;;;8.70;5.00;;;;;;;13.77;47.58;99403.84;5073364;28;20048;-48
2024/02/14 08:18:27;;;;;;;13.35;5.63;;;;;;;13.87;46.45;99401.59;5073132;28;20457;-47
2024/02/14 08:20:53;;;;;;;12.32;5.57;;;;;;;14.05;46.12;99406.25;5073369;28;20021;-49
2024/02/14 08:23:19;;;;;;;14.30;5.25;;;;;;;14.30;45.78;99392.41;5072057;28;20035;-49
2024/02/14 08:25:46;;;;;;;8.13;4.95;;;;;;;14.61;44.31;99404.09;5073500;28;20021;-49
2024/02/14 08:28:12;;;;;;;11.75;5.00;;;;;;;14.66;43.00;99410.41;5073200;28;20021;-48
2024/02/14 08:30:38;;;;;;;11.30;4.95;;;;;;;14.77;43.46;99403.66;5071746;28;20020;-49
2024/02/14 08:33:04;;;;;;;8.38;4.70;;;;;;;15.26;42.93;99410.13;5073070;28;20510;-49
2024/02/14 08:35:30;;;;;;;7.90;4.63;;;;;;;15.57;41.95;99409.31;5073027;28;20021;-49
2024/02/14 08:37:55;;;;;;;9.10;5.28;;;;;;;15.96;40.81;99414.53;5071900;28;20051;-49
2024/02/14 08:40:21;;;;;;;6.97;4.18;;;;;;;16.43;40.75;99422.00;5072856;28;20017;-49
2024/02/14 08:42:47;;;;;;;7.35;4.50;;;;;;;17.43;39.80;99424.25;5071630;28;20025;-47
2024/02/14 08:45:13;;;;;;;10.25;4.68;;;;;;;18.39;38.71;99421.47;5072800;28;20028;-47
2024/02/14 08:47:40;;;;;;;9.80;4.85;;;;;;;19.09;36.60;99406.34;5072826;28;20079;-47
2024/02/14 08:50:06;;;;;;;10.32;5.03;;;;;;;19.64;36.07;99410.22;5072704;28;20021;-47
2024/02/14 08:52:32;;;;;;;7.72;4.22;;;;;;;20.47;34.45;99411.19;5072690;28;20023;-47
2024/02/14 08:54:58;;;;;;;9.80;5.15;;;;;;;21.41;33.32;99417.31;5071374;28;20029;-47
2024/02/14 08:57:24;;;;;;;12.55;5.47;;;;;;;22.52;32.34;99398.84;5072208;28;20017;-47
2024/02/14 08:59:49;;;;;;;22.92;5.97;;;;;;;23.56;31.24;99406.03;5071084;28;20021;-47
2024/02/14 09:02:16;;;;;;;18.27;5.70;;;;;;;24.29;29.99;99405.69;5071160;28;20017;-47
2024/02/14 09:04:44;;;;;;;9.40;5.32;;;;;;;24.46;29.02;99402.69;5071473;28;20021;-48
2024/02/14 09:07:10;;;;;;;15.07;5.03;;;;;;;24.71;28.44;99399.94;5071411;28;20501;-46
2024/02/14 09:09:37;;;;;;;12.18;6.03;;;;;;;24.55;28.29;99389.53;5072340;28;20124;-46
2024/02/14 09:12:04;;;;;;;9.00;5.15;;;;;;;24.55;28.54;99395.72;5072282;28;20429;-46
2024/02/14 09:14:31;;;;;;;11.00;4.60;;;;;;;24.96;27.97;99398.19;5072243;28;20035;-46
2024/02/14 09:16:57;;;;;;;13.48;5.20;;;;;;;25.41;27.24;99390.91;5072206;28;20024;-46
2024/02/14 09:19:25;;;;;;;11.15;4.43;;;;;;;25.78;26.60;99386.03;5071985;28;20071;-46
2024/02/14 09:21:51;;;;;;;8.05;4.72;;;;;;;26.50;25.73;99384.19;5070811;28;20040;-46
2024/02/14 09:24:17;;;;;;;14.50;4.60;;;;;;;27.14;24.99;99389.25;5072197;28;20026;-46
2024/02/14 09:26:43;;;;;;;11.00;5.47;;;;;;;27.34;24.77;99398.16;5072075;28;20557;-46
2024/02/14 09:29:12;;;;;;;11.40;4.53;;;;;;;27.44;24.45;99411.47;5072071;28;20032;-46
2024/02/14 09:31:37;;;;;;;13.50;4.90;;;;;;;27.64;24.06;99419.19;5070708;28;20029;-46
2024/02/14 09:34:03;;;;;;;15.35;4.85;;;;;;;27.62;23.87;99423.31;5072017;28;20027;-48
2024/02/14 09:36:30;;;;;;;7.47;4.18;;;;;;;27.85;23.49;99432.38;5071822;28;20037;-48
2024/02/14 09:38:55;;;;;;;8.43;4.18;;;;;;;28.05;22.79;99437.41;5070553;28;20115;-48
2024/02/14 09:41:23;;;;;;;7.55;3.75;;;;;;;28.21;22.26;99432.53;5071931;28;20119;-47
2024/02/14 09:43:49;;;;;;;8.27;4.20;;;;;;;28.21;22.22;99437.13;5072107;28;20032;-47
2024/02/14 09:46:15;;;;;;;8.30;3.67;;;;;;;27.85;23.05;99443.94;5071876;28;20539;-47
2024/02/14 09:48:47;;;;;;;7.78;3.92;;;;;;;28.03;22.79;99430.69;5071815;28;20086;-47
2024/02/14 09:51:13;;;;;;;5.75;3.80;;;;;;;28.23;22.60;99424.94;5071778;28;20081;-48
2024/02/14 09:53:40;;;;;;;10.18;3.72;;;;;;;28.43;22.25;99421.03;5070497;28;20060;-48
2024/02/14 09:56:08;;;;;;;37.83;5.60;;;;;;;28.93;22.05;99422.19;5071767;28;20473;-47
2024/02/14 09:58:36;;;;;;;7.80;3.88;;;;;;;29.40;21.41;99414.63;5070327;28;20033;-48
2024/02/14 10:01:02;;;;;;;7.15;3.75;;;;;;;29.06;21.02;99405.16;5071629;28;20020;-48
2024/02/14 10:03:27;;;;;;;8.70;5.03;;;;;;;28.16;22.15;99405.63;5071682;28;20025;-47
2024/02/14 10:05:54;;;;;;;11.32;4.07;;;;;;;26.63;22.93;99411.50;5070338;28;20054;-47
2024/02/14 10:08:22;;;;;;;8.60;5.07;;;;;;;25.47;24.76;99418.53;5070304;28;20024;-47
2024/02/14 10:10:49;;;;;;;10.50;5.10;;;;;;;25.14;24.57;99426.28;5073871;28;20024;-47
2024/02/14 10:13:16;;;;;;;9.65;4.40;;;;;;;23.86;26.04;99432.84;5075821;28;20111;-46
2024/02/14 10:15:42;;;;;;;9.57;4.32;;;;;;;23.57;26.48;99445.19;5074422;28;20024;-45
2024/02/14 10:18:09;;;;;;;12.10;4.78;;;;;;;24.44;26.04;99448.56;5075393;28;20380;-46
2024/02/14 10:20:40;;;;;;;10.63;6.75;;;;;;;25.95;24.46;99458.25;5075468;28;20032;-46
2024/02/14 10:23:08;;;;;;;8.27;5.88;;;;;;;27.24;23.51;99459.19;5074342;28;20036;-46
2024/02/14 10:25:38;;;;;;;11.10;5.28;;;;;;;28.24;22.00;99463.53;5074210;28;20047;-46
2024/02/14 10:28:08;;;;;;;9.45;4.18;;;;;;;28.91;21.22;99457.63;5075438;28;20058;-46
2024/02/14 10:30:42;;;;;;;10.10;4.65;;;;;;;29.64;20.21;99452.19;5075738;28;20083;-46
2024/02/14 10:33:08;;;;;;;9.02;4.32;;;;;;;30.32;19.71;99452.91;5075472;28;20029;-46
2024/02/14 10:35:41;;;;;;;7.30;3.42;;;;;;;30.88;19.42;99449.72;5075300;28;20036;-46
2024/02/14 10:38:09;;;;;;;9.88;4.18;;;;;;;31.34;18.53;99456.47;5074134;28;20037;-47
2024/02/14 10:40:38;;;;;;;9.13;4.00;;;;;;;30.55;18.84;99460.97;5073877;28;20410;-46
2024/02/14 10:43:06;;;;;;;7.63;3.60;;;;;;;29.91;19.57;99464.00;5075204;28;20028;-47
2024/02/14 10:45:32;;;;;;;5.68;3.40;;;;;;;29.43;19.90;99463.50;5073840;28;20064;-46
2024/02/14 10:48:01;;;;;;;9.18;3.60;;;;;;;28.39;20.66;99463.25;5075201;28;20017;-46
2024/02/14 10:50:33;;;;;;;7.68;3.35;;;;;;;27.66;21.15;99452.06;5073791;28;20039;-46
2024/02/14 10:53:04;;;;;;;8.90;3.53;;;;;;;26.98;21.86;99457.91;5075122;28;20037;-46
2024/02/14 10:55:31;;;;;;;5.93;3.72;;;;;;;26.74;21.96;99452.56;5073714;28;20042;-46
2024/02/14 10:57:58;;;;;;;6.57;4.00;;;;;;;26.47;22.41;99448.56;5074970;28;20020;-46
2024/02/14 11:00:25;;;;;;;6.43;4.32;;;;;;;26.63;22.50;99443.81;5074835;28;20107;-46
2024/02/14 11:02:52;;;;;;;8.63;3.58;;;;;;;26.96;22.06;99433.94;5074831;28;20482;-46
2024/02/14 11:05:23;;;;;;;9.23;3.75;;;;;;;27.18;22.35;99433.38;5074854;28;20091;-46
2024/02/14 11:07:52;;;;;;;8.93;3.65;;;;;;;27.52;22.01;99426.16;5074710;28;20045;-46
2024/02/14 11:10:21;;;;;;;7.38;3.50;;;;;;;28.34;21.30;99438.25;5074696;28;20075;-46
2024/02/14 11:12:50;;;;;;;8.00;3.50;;;;;;;28.74;20.97;99425.84;5074596;28;20032;-46
2024/02/14 11:15:21;;;;;;;8.90;3.45;;;;;;;28.13;20.69;99432.41;5074612;28;20023;-46
2024/02/14 11:17:54;;;;;;;4.97;3.10;;;;;;;26.99;21.43;99435.28;5072973;28;20028;-46
2024/02/14 11:20:31;;;;;;;8.97;3.70;;;;;;;25.83;22.78;99440.53;5074280;28;20021;-46
2024/02/14 11:23:03;;;;;;;10.63;3.38;;;;;;;25.02;23.48;99448.09;5073203;28;20029;-46
2024/02/14 11:25:35;;;;;;;5.38;3.40;;;;;;;24.66;24.24;99450.94;5073140;28;20037;-45